Time;durP1;ratioP1;P1;durP2;ratioP2;P2;SDS_P1;SDS_P2;PMS_P1;PMS_P2;Temp;Humidity;BMP_temperature;BMP_pressure;BME280_temperature;BME280_humidity;BME280_pressure;Samples;Min_cycle;Max_cycle;Signal;HPM_P1;HPM_P2
2021/10/24 00:01:22;;;;;;;13.88;5.53;;;13.70;86.10;;;;;;5114727;28;20032;-76
2021/10/24 00:03:48;;;;;;;11.13;4.90;;;13.70;85.50;;;;;;5114179;27;20035;-76
2021/10/24 00:06:14;;;;;;;14.63;6.20;;;13.80;85.50;;;;;;5105029;28;20032;-77
2021/10/24 00:08:39;;;;;;;9.77;5.00;;;13.70;85.50;;;;;;5110311;28;20521;-76
2021/10/24 00:11:06;;;;;;;14.30;4.32;;;13.80;85.50;;;;;;5114523;27;20032;-76
2021/10/24 00:13:32;;;;;;;11.20;4.93;;;13.80;85.50;;;;;;5125914;27;20027;-76
2021/10/24 00:15:59;;;;;;;12.05;5.20;;;13.70;85.50;;;;;;5120404;27;20024;-77
2021/10/24 00:18:25;;;;;;;14.98;4.95;;;13.70;85.40;;;;;;5132240;27;20027;-76
2021/10/24 00:20:53;;;;;;;9.65;5.38;;;13.70;85.40;;;;;;5126302;27;20046;-76
2021/10/24 00:23:19;;;;;;;10.30;5.00;;;13.70;85.30;;;;;;5132119;27;20137;-76
2021/10/24 00:25:46;;;;;;;12.25;4.40;;;13.70;85.30;;;;;;5130643;27;20039;-77
2021/10/24 00:28:12;;;;;;;13.60;5.05;;;13.70;85.30;;;;;;5131502;27;20045;-76
2021/10/24 00:30:38;;;;;;;10.55;3.97;;;13.80;85.40;;;;;;5131630;27;20512;-76
2021/10/24 00:33:10;;;;;;;11.55;4.90;;;13.70;85.30;;;;;;5113724;27;20016;-75
2021/10/24 00:35:36;;;;;;;10.87;5.37;;;13.70;85.30;;;;;;5125553;27;20080;-76
2021/10/24 00:38:02;;;;;;;8.43;4.72;;;13.70;85.30;;;;;;5116593;27;20019;-77
2021/10/24 00:40:27;;;;;;;9.70;4.22;;;13.70;85.30;;;;;;5122219;27;20036;-76
2021/10/24 00:42:54;;;;;;;9.38;4.68;;;13.70;85.90;;;;;;5124614;27;20070;-76
2021/10/24 00:45:23;;;;;;;11.60;5.28;;;13.70;85.30;;;;;;5092320;27;20020;-76
2021/10/24 00:47:53;;;;;;;9.50;2.88;;;13.70;85.30;;;;;;5127454;27;20508;-76
2021/10/24 00:50:25;;;;;;;12.65;5.78;;;13.70;85.30;;;;;;5081717;27;20104;-76
2021/10/24 00:52:51;;;;;;;7.32;3.83;;;13.70;85.30;;;;;;5092084;28;20032;-76
2021/10/24 00:55:16;;;;;;;16.13;5.80;;;13.60;85.30;;;;;;5106790;27;20069;-76
2021/10/24 00:57:43;;;;;;;17.73;4.53;;;13.70;85.30;;;;;;5121843;27;20021;-76
2021/10/24 01:00:13;;;;;;;14.65;4.88;;;13.60;85.30;;;;;;5111978;27;20036;-76
2021/10/24 01:02:39;;;;;;;7.93;3.63;;;13.60;85.30;;;;;;5113717;27;20095;-76
2021/10/24 01:05:07;;;;;;;10.23;4.53;;;13.70;85.30;;;;;;5116358;27;20027;-76
2021/10/24 01:07:33;;;;;;;9.73;4.30;;;13.60;85.20;;;;;;5091356;28;20031;-76
2021/10/24 01:10:00;;;;;;;10.45;4.72;;;13.70;85.30;;;;;;5110586;27;20027;-76
2021/10/24 01:12:26;;;;;;;11.10;5.13;;;13.60;85.10;;;;;;5103639;28;20079;-76
2021/10/24 01:14:52;;;;;;;15.18;3.97;;;13.60;85.20;;;;;;5118147;27;20035;-76
2021/10/24 01:17:22;;;;;;;11.35;4.50;;;13.60;85.10;;;;;;5098697;28;20027;-76
2021/10/24 01:19:50;;;;;;;9.95;4.07;;;13.60;85.10;;;;;;5101386;27;20024;-76
2021/10/24 01:22:16;;;;;;;8.30;4.05;;;13.50;85.00;;;;;;5105297;27;20124;-75
2021/10/24 01:24:43;;;;;;;14.90;5.03;;;13.60;85.10;;;;;;5090907;28;20496;-76
2021/10/24 01:27:08;;;;;;;13.38;5.53;;;13.50;85.00;;;;;;5112683;27;20035;-76
2021/10/24 01:29:34;;;;;;;8.00;3.65;;;13.50;85.00;;;;;;5093856;28;20012;-75
2021/10/24 01:32:01;;;;;;;11.38;4.47;;;13.40;85.10;;;;;;5111930;27;20024;-76
2021/10/24 01:34:27;;;;;;;4.55;2.00;;;13.50;85.10;;;;;;5104743;28;20026;-76
2021/10/24 01:36:53;;;;;;;5.72;2.85;;;13.40;85.20;;;;;;5111706;27;20453;-76
2021/10/24 01:39:18;;;;;;;15.45;5.78;;;13.40;85.20;;;;;;5131840;27;20055;-76
2021/10/24 01:41:44;;;;;;;12.80;3.53;;;13.40;85.00;;;;;;5097775;28;20046;-76
2021/10/24 01:44:10;;;;;;;14.48;6.30;;;13.30;85.00;;;;;;5090029;28;20020;-75
2021/10/24 01:46:38;;;;;;;11.10;5.60;;;13.30;84.80;;;;;;5099143;27;20680;-76
2021/10/24 01:49:04;;;;;;;12.88;3.90;;;13.30;84.80;;;;;;5102706;28;20041;-76
2021/10/24 01:51:30;;;;;;;9.05;3.67;;;13.30;84.90;;;;;;5092692;28;20032;-76
2021/10/24 01:53:56;;;;;;;11.10;5.82;;;13.30;85.00;;;;;;5095332;28;20015;-76
2021/10/24 01:56:23;;;;;;;12.07;5.53;;;13.30;84.90;;;;;;5094316;28;20072;-76
2021/10/24 01:58:49;;;;;;;12.48;6.22;;;13.30;84.80;;;;;;5101256;28;20055;-76
2021/10/24 02:01:16;;;;;;;17.15;5.22;;;13.20;84.50;;;;;;5093881;28;20380;-76
2021/10/24 02:04:14;;;;;;;10.38;5.95;;;13.20;84.60;;;;;;5076255;27;20034;-75
2021/10/24 02:06:50;;;;;;;12.82;6.82;;;13.20;84.50;;;;;;5103320;28;20031;-76
2021/10/24 02:09:20;;;;;;;13.13;6.68;;;13.20;84.40;;;;;;5095232;28;20027;-76
2021/10/24 02:11:45;;;;;;;16.58;7.10;;;13.20;84.20;;;;;;5093092;28;20027;-76
2021/10/24 02:14:11;;;;;;;14.90;6.80;;;13.10;84.10;;;;;;5094267;28;20024;-77
2021/10/24 02:16:42;;;;;;;13.80;7.22;;;13.20;83.90;;;;;;5093426;28;20036;-76
2021/10/24 02:19:08;;;;;;;16.73;6.32;;;13.20;83.80;;;;;;5094572;28;20024;-76
2021/10/24 02:21:34;;;;;;;13.20;6.25;;;13.20;83.70;;;;;;5093993;28;20039;-76
2021/10/24 02:24:01;;;;;;;12.63;6.53;;;13.20;83.70;;;;;;5094417;28;20382;-76
2021/10/24 02:26:26;;;;;;;11.73;6.68;;;13.20;84.30;;;;;;5105960;28;20028;-76
2021/10/24 02:28:52;;;;;;;16.35;7.95;;;13.10;83.50;;;;;;5093534;28;20042;-75
2021/10/24 02:31:18;;;;;;;12.35;7.05;;;13.10;83.40;;;;;;5125426;28;20035;-76
2021/10/24 02:34:04;;;;;;;17.23;6.03;;;13.20;83.40;;;;;;5124395;28;20483;-75
2021/10/24 02:36:43;;;;;;;16.05;6.85;;;13.10;83.40;;;;;;5098341;28;20036;-76
2021/10/24 02:39:09;;;;;;;12.57;7.15;;;13.10;83.00;;;;;;5090352;28;20139;-75
2021/10/24 02:41:38;;;;;;;11.40;5.70;;;13.10;83.00;;;;;;5104816;28;20432;-76
2021/10/24 02:44:04;;;;;;;15.73;7.10;;;13.10;83.00;;;;;;5108353;28;20016;-76
2021/10/24 02:46:37;;;;;;;12.40;6.60;;;13.10;82.90;;;;;;5105746;28;20529;-75
2021/10/24 02:49:09;;;;;;;13.25;6.63;;;13.00;82.80;;;;;;5097575;28;20285;-76
2021/10/24 02:51:45;;;;;;;15.15;6.80;;;13.00;82.90;;;;;;5108613;28;20373;-75
2021/10/24 02:54:11;;;;;;;14.77;7.00;;;13.00;82.70;;;;;;5106495;27;20050;-75
2021/10/24 02:56:37;;;;;;;9.18;5.03;;;13.00;82.70;;;;;;5110965;28;20019;-75
2021/10/24 02:59:03;;;;;;;11.27;5.60;;;12.90;82.80;;;;;;5110902;27;20032;-76
2021/10/24 03:01:29;;;;;;;11.68;5.57;;;12.90;82.80;;;;;;5097348;28;20040;-75
2021/10/24 03:03:54;;;;;;;11.57;4.38;;;12.90;82.60;;;;;;5107955;28;20023;-75
2021/10/24 03:06:21;;;;;;;13.45;6.38;;;12.90;82.90;;;;;;5093803;28;20068;-76
2021/10/24 03:08:47;;;;;;;12.77;5.70;;;12.80;82.60;;;;;;5099662;28;20074;-75
2021/10/24 03:11:12;;;;;;;10.15;4.65;;;12.80;82.60;;;;;;5102422;27;20038;-76
2021/10/24 03:13:38;;;;;;;13.88;6.40;;;12.80;82.70;;;;;;5116238;27;20493;-75
2021/10/24 03:16:04;;;;;;;15.50;6.32;;;12.80;82.50;;;;;;5097474;27;20031;-75
2021/10/24 03:18:31;;;;;;;14.15;6.43;;;12.80;82.50;;;;;;5098728;28;20027;-75
2021/10/24 03:20:56;;;;;;;15.55;6.90;;;12.70;82.20;;;;;;5099018;28;20502;-75
2021/10/24 03:23:22;;;;;;;12.98;6.47;;;12.70;82.10;;;;;;5097913;27;20514;-75
2021/10/24 03:25:49;;;;;;;13.10;6.80;;;12.70;82.00;;;;;;5097147;28;20023;-75
2021/10/24 03:28:15;;;;;;;16.30;7.20;;;12.70;81.90;;;;;;5098659;28;20551;-75
2021/10/24 03:30:41;;;;;;;13.77;7.10;;;12.70;81.80;;;;;;5096510;28;20030;-75
2021/10/24 03:33:07;;;;;;;11.15;6.72;;;12.70;81.60;;;;;;5098676;28;20072;-75
2021/10/24 03:35:34;;;;;;;14.93;7.45;;;12.70;81.50;;;;;;5097404;27;20023;-75
2021/10/24 03:38:00;;;;;;;15.50;6.82;;;12.70;81.50;;;;;;5115499;27;20102;-75
2021/10/24 03:40:26;;;;;;;14.73;7.47;;;12.70;81.40;;;;;;5097637;27;20019;-75
2021/10/24 03:42:53;;;;;;;13.27;6.32;;;12.70;81.30;;;;;;5105786;27;20027;-75
2021/10/24 03:45:18;;;;;;;12.98;6.50;;;12.60;81.20;;;;;;5097840;28;20035;-75
2021/10/24 03:47:47;;;;;;;17.30;8.18;;;12.60;81.20;;;;;;5094300;28;20476;-75
2021/10/24 03:50:13;;;;;;;16.23;7.28;;;12.60;81.20;;;;;;5086208;28;20024;-75
2021/10/24 03:52:40;;;;;;;15.00;6.88;;;12.60;81.20;;;;;;5116593;27;20042;-75
2021/10/24 03:55:11;;;;;;;16.42;7.57;;;12.60;81.20;;;;;;5099122;28;20379;-75
2021/10/24 03:57:41;;;;;;;13.48;6.70;;;12.60;81.20;;;;;;5097035;27;20023;-75
2021/10/24 04:00:08;;;;;;;16.35;7.00;;;12.60;81.10;;;;;;5097243;27;20030;-75
2021/10/24 04:03:02;;;;;;;17.08;7.78;;;12.60;81.10;;;;;;5121111;27;20036;-75
2021/10/24 04:05:34;;;;;;;19.55;7.97;;;12.50;81.00;;;;;;5102163;27;20027;-75
2021/10/24 04:08:01;;;;;;;20.67;7.47;;;12.50;81.00;;;;;;5108258;27;20040;-75
2021/10/24 04:10:27;;;;;;;20.35;8.00;;;12.50;81.00;;;;;;5098261;27;20066;-75
2021/10/24 04:12:56;;;;;;;19.92;8.15;;;12.50;80.90;;;;;;5119495;27;20119;-76
2021/10/24 04:15:23;;;;;;;15.73;7.88;;;12.50;80.50;;;;;;5097696;27;20376;-75
2021/10/24 04:17:50;;;;;;;16.25;7.28;;;12.50;80.70;;;;;;5110985;27;20113;-75
2021/10/24 04:20:20;;;;;;;17.05;9.10;;;12.40;80.60;;;;;;5096362;28;20110;-74
2021/10/24 04:22:48;;;;;;;22.05;8.82;;;12.40;80.50;;;;;;5101359;27;20030;-75
2021/10/24 04:25:19;;;;;;;18.77;8.27;;;12.40;80.50;;;;;;5106701;27;20038;-75
2021/10/24 04:27:45;;;;;;;19.88;9.30;;;12.30;80.30;;;;;;5103445;27;20047;-74
2021/10/24 04:30:14;;;;;;;20.15;8.63;;;12.30;80.10;;;;;;5096807;28;20041;-80
2021/10/24 04:33:18;;;;;;;9.93;5.70;;;12.30;79.70;;;;;;5078736;27;20410;-75
2021/10/24 04:35:44;;;;;;;15.82;8.13;;;12.30;80.40;;;;;;5077898;28;20095;-75
2021/10/24 04:38:09;;;;;;;19.65;8.75;;;12.20;80.40;;;;;;5085786;28;20477;-76
2021/10/24 04:40:37;;;;;;;16.17;7.43;;;12.10;80.20;;;;;;5060853;28;20376;-75
2021/10/24 04:43:06;;;;;;;20.98;7.75;;;12.20;80.60;;;;;;5052873;28;20029;-75
2021/10/24 04:45:34;;;;;;;17.20;8.38;;;12.10;80.50;;;;;;5062369;28;20024;-75
2021/10/24 04:48:02;;;;;;;14.82;8.02;;;12.10;80.90;;;;;;5081433;28;20120;-75
2021/10/24 04:50:35;;;;;;;14.82;7.30;;;12.10;80.70;;;;;;5063644;28;20024;-76
2021/10/24 04:53:06;;;;;;;18.95;8.40;;;12.00;80.40;;;;;;5065210;28;20102;-75
2021/10/24 04:55:33;;;;;;;15.98;7.43;;;12.00;80.20;;;;;;5075013;28;20025;-75
2021/10/24 04:57:58;;;;;;;16.70;7.25;;;12.00;80.50;;;;;;5063563;28;20078;-75
2021/10/24 05:00:24;;;;;;;14.85;7.65;;;11.90;80.50;;;;;;5063211;28;20024;-74
2021/10/24 05:02:51;;;;;;;19.92;8.35;;;11.90;80.50;;;;;;5067070;28;20054;-75
2021/10/24 05:05:19;;;;;;;17.27;7.70;;;11.90;80.30;;;;;;5077017;28;20107;-75
2021/10/24 05:07:45;;;;;;;16.40;7.50;;;11.90;80.30;;;;;;5059628;28;20845;-76
2021/10/24 05:10:11;;;;;;;19.33;7.40;;;11.80;80.30;;;;;;5064561;28;20025;-74
2021/10/24 05:12:37;;;;;;;16.08;7.68;;;11.80;80.40;;;;;;5079104;28;20041;-75
2021/10/24 05:15:04;;;;;;;19.55;9.20;;;11.80;80.50;;;;;;5055058;28;20021;-75
2021/10/24 05:17:33;;;;;;;17.55;7.22;;;11.70;80.50;;;;;;5080438;28;20039;-75
2021/10/24 05:19:58;;;;;;;14.68;6.85;;;11.70;80.60;;;;;;5055469;28;20021;-73
2021/10/24 05:22:24;;;;;;;13.80;7.70;;;11.70;80.80;;;;;;5066021;28;20073;-73
2021/10/24 05:24:51;;;;;;;18.00;6.82;;;11.60;81.10;;;;;;5086219;28;20104;-75
2021/10/24 05:27:17;;;;;;;15.80;8.18;;;11.60;81.10;;;;;;5051101;28;20029;-75
2021/10/24 05:29:44;;;;;;;13.90;7.57;;;11.60;81.00;;;;;;5066092;28;20513;-75
2021/10/24 05:32:10;;;;;;;18.98;7.88;;;11.60;80.90;;;;;;5055575;28;20052;-75
2021/10/24 05:34:36;;;;;;;17.52;8.60;;;11.50;81.10;;;;;;5056031;28;20036;-76
2021/10/24 05:37:08;;;;;;;15.25;7.60;;;11.50;81.20;;;;;;5062141;28;20060;-75
2021/10/24 05:39:34;;;;;;;19.73;8.60;;;11.50;81.00;;;;;;5062956;28;20132;-75
2021/10/24 05:42:09;;;;;;;17.58;8.02;;;11.50;80.90;;;;;;5060410;28;20051;-75
2021/10/24 05:44:35;;;;;;;19.40;8.38;;;11.50;80.80;;;;;;5045459;28;20020;-75
2021/10/24 05:47:04;;;;;;;14.55;6.32;;;11.50;80.80;;;;;;5019895;28;20416;-75
2021/10/24 05:49:32;;;;;;;11.18;6.32;;;11.40;81.00;;;;;;5039422;28;20504;-75
2021/10/24 05:52:02;;;;;;;20.23;8.25;;;11.40;81.10;;;;;;5046826;28;20020;-75
2021/10/24 05:54:29;;;;;;;19.65;6.97;;;11.40;81.30;;;;;;5046481;28;20083;-75
2021/10/24 05:56:54;;;;;;;17.45;8.63;;;11.40;81.60;;;;;;5042307;28;20025;-75
2021/10/24 05:59:38;;;;;;;;;;;11.40;81.50;;;;;;5016348;28;20022;-75
2021/10/24 06:02:24;;;;;;;16.13;7.13;;;11.30;81.70;;;;;;5029419;28;19952;-75
2021/10/24 06:05:15;;;;;;;10.63;6.38;;;11.30;81.70;;;;;;5042835;28;20124;-75
2021/10/24 06:07:41;;;;;;;15.35;7.70;;;11.30;81.70;;;;;;5047688;28;20105;-75
2021/10/24 06:10:18;;;;;;;14.80;7.13;;;11.20;81.50;;;;;;5052424;28;20519;-74
2021/10/24 06:12:45;;;;;;;15.18;7.05;;;11.20;81.80;;;;;;5038187;28;20443;-75
2021/10/24 06:15:14;;;;;;;15.95;8.70;;;11.20;81.70;;;;;;5049121;28;20436;-75
2021/10/24 06:17:40;;;;;;;16.42;7.40;;;11.20;81.60;;;;;;5051308;28;20060;-75
2021/10/24 06:20:07;;;;;;;18.25;7.57;;;11.20;81.60;;;;;;5042392;28;20028;-75
2021/10/24 06:22:33;;;;;;;14.40;7.38;;;11.10;81.60;;;;;;5050578;28;20045;-75
2021/10/24 06:25:05;;;;;;;14.20;7.05;;;11.10;81.60;;;;;;5040459;28;20022;-75
2021/10/24 06:27:35;;;;;;;20.77;8.25;;;11.10;81.80;;;;;;5049527;28;20083;-75
2021/10/24 06:30:00;;;;;;;15.35;7.35;;;11.10;81.70;;;;;;5046745;28;20029;-75
2021/10/24 06:32:50;;;;;;;16.00;7.68;;;11.00;81.80;;;;;;5059373;28;20509;-75
2021/10/24 06:35:34;;;;;;;19.52;7.95;;;11.10;81.90;;;;;;5065313;28;20087;-75
2021/10/24 06:38:20;;;;;;;16.60;7.15;;;11.00;82.00;;;;;;5060673;28;20040;-75
2021/10/24 06:40:47;;;;;;;21.08;9.30;;;11.00;82.30;;;;;;5049308;28;20472;-75
2021/10/24 06:43:14;;;;;;;14.52;7.72;;;11.00;82.20;;;;;;5048861;28;20496;-75
2021/10/24 06:45:58;;;;;;;15.23;6.95;;;11.00;82.10;;;;;;5060804;28;20039;-75
2021/10/24 06:48:43;;;;;;;15.30;7.20;;;10.90;82.10;;;;;;5068101;28;20154;-74
2021/10/24 06:51:18;;;;;;;15.80;7.50;;;10.90;82.30;;;;;;5047424;28;20029;-75
2021/10/24 06:54:03;;;;;;;23.45;8.63;;;10.90;82.10;;;;;;5067934;28;20400;-75
2021/10/24 06:56:48;;;;;;;17.20;6.93;;;10.90;82.20;;;;;;5069797;28;20031;-75
2021/10/24 06:59:50;;;;;;;18.63;7.18;;;10.90;82.30;;;;;;4982334;28;20497;-75
2021/10/24 07:02:35;;;;;;;15.30;7.15;;;10.80;82.20;;;;;;5060718;28;20036;-75
2021/10/24 07:05:24;;;;;;;19.45;7.10;;;10.80;82.10;;;;;;5053649;28;20103;-75
2021/10/24 07:07:58;;;;;;;16.08;7.20;;;10.80;82.50;;;;;;5045772;28;20603;-74
2021/10/24 07:10:24;;;;;;;15.70;7.85;;;10.80;82.40;;;;;;5060039;28;20032;-75
2021/10/24 07:12:52;;;;;;;17.13;7.75;;;10.80;82.40;;;;;;5052712;28;20041;-73
2021/10/24 07:15:20;;;;;;;19.33;7.93;;;10.80;82.50;;;;;;5048108;28;20025;-80
2021/10/24 07:17:46;;;;;;;16.35;8.02;;;10.80;82.50;;;;;;5050216;28;20083;-78
2021/10/24 07:20:13;;;;;;;16.80;7.07;;;10.80;82.40;;;;;;5050447;28;20118;-80
2021/10/24 07:22:48;;;;;;;16.50;7.85;;;10.80;82.70;;;;;;5044179;28;20499;-81
2021/10/24 07:25:24;;;;;;;14.13;7.97;;;10.80;82.90;;;;;;5069575;28;20067;-86
2021/10/24 07:27:50;;;;;;;22.23;8.27;;;10.80;83.00;;;;;;5046474;28;20028;-73
2021/10/24 07:30:16;;;;;;;15.75;7.50;;;10.80;82.90;;;;;;5053086;28;20030;-81
2021/10/24 07:32:48;;;;;;;15.75;8.15;;;10.80;83.10;;;;;;5044605;28;20045;-77
2021/10/24 07:35:34;;;;;;;15.45;8.07;;;10.70;83.00;;;;;;5065560;28;20033;-79
2021/10/24 07:38:04;;;;;;;17.33;7.32;;;10.70;83.00;;;;;;5044614;28;20032;-79
2021/10/24 07:40:36;;;;;;;12.73;7.53;;;10.70;83.00;;;;;;5049331;28;20435;-78
2021/10/24 07:43:06;;;;;;;14.40;7.45;;;10.70;83.00;;;;;;5040021;28;20043;-80
2021/10/24 07:45:31;;;;;;;20.27;8.38;;;10.80;83.80;;;;;;5033598;28;20025;-82
2021/10/24 07:47:57;;;;;;;15.45;7.50;;;10.80;83.30;;;;;;5046216;28;20116;-81
2021/10/24 07:50:26;;;;;;;18.95;9.05;;;10.70;83.30;;;;;;5043188;28;20025;-81
2021/10/24 07:52:52;;;;;;;18.25;9.48;;;10.80;83.40;;;;;;5018666;28;20045;-82
2021/10/24 07:55:29;;;;;;;16.90;7.43;;;10.80;83.50;;;;;;5032172;28;20455;-81
2021/10/24 07:57:55;;;;;;;9.18;4.80;;;10.80;83.50;;;;;;5036655;28;20120;-82
2021/10/24 08:00:22;;;;;;;10.73;5.15;;;10.70;83.50;;;;;;5052780;28;20017;-82
2021/10/24 08:02:48;;;;;;;15.38;6.85;;;10.70;83.70;;;;;;5031710;28;20508;-84
2021/10/24 08:05:16;;;;;;;14.25;7.18;;;10.70;84.40;;;;;;5046460;28;20040;-80
2021/10/24 08:07:43;;;;;;;12.30;4.78;;;10.70;83.90;;;;;;5031926;28;20029;-80
2021/10/24 08:10:13;;;;;;;16.63;7.25;;;10.70;83.90;;;;;;5035807;28;20028;-81
2021/10/24 08:12:42;;;;;;;13.32;6.72;;;10.70;83.80;;;;;;5041712;28;20048;-81
2021/10/24 08:15:09;;;;;;;11.18;4.82;;;10.70;83.90;;;;;;5036558;28;20368;-81
2021/10/24 08:17:35;;;;;;;15.52;7.43;;;10.80;84.00;;;;;;5044437;28;20158;-82
2021/10/24 08:20:21;;;;;;;14.70;4.78;;;10.80;83.90;;;;;;5042406;28;20033;-81
2021/10/24 08:22:47;;;;;;;20.13;7.40;;;10.80;83.90;;;;;;5062076;28;20032;-81
2021/10/24 08:25:14;;;;;;;18.08;7.70;;;10.80;83.90;;;;;;5018376;28;20078;-81
2021/10/24 08:27:40;;;;;;;15.40;6.63;;;10.80;83.70;;;;;;5040353;28;20029;-82
2021/10/24 08:30:35;;;;;;;13.27;6.40;;;10.80;83.80;;;;;;5043184;28;20029;-81
2021/10/24 08:33:17;;;;;;;12.63;6.18;;;10.80;83.70;;;;;;5021459;28;20045;-82
2021/10/24 08:35:42;;;;;;;15.95;6.80;;;10.90;83.80;;;;;;5009639;28;20034;-80
2021/10/24 08:38:08;;;;;;;10.45;5.13;;;10.90;83.80;;;;;;5014925;28;20026;-80
2021/10/24 08:40:34;;;;;;;15.73;6.93;;;10.80;83.70;;;;;;5023756;28;20018;-81
2021/10/24 08:43:13;;;;;;;11.50;6.55;;;10.90;83.70;;;;;;5014582;28;20033;-80
2021/10/24 08:45:40;;;;;;;10.35;5.32;;;10.90;83.80;;;;;;5023674;28;20096;-73
2021/10/24 08:48:06;;;;;;;14.70;7.05;;;10.90;83.80;;;;;;5010797;28;20036;-83
2021/10/24 08:50:32;;;;;;;16.42;7.47;;;10.90;83.80;;;;;;5023863;28;20025;-81
2021/10/24 08:53:00;;;;;;;18.92;7.45;;;11.00;84.10;;;;;;5021941;28;20042;-83
2021/10/24 08:55:25;;;;;;;16.00;6.35;;;11.00;84.10;;;;;;5021714;28;20045;-79
2021/10/24 08:57:53;;;;;;;16.73;7.60;;;11.00;84.00;;;;;;5021354;28;20049;-82
2021/10/24 09:00:18;;;;;;;19.55;7.25;;;11.10;84.10;;;;;;5019063;28;20038;-81
2021/10/24 09:02:55;;;;;;;7.53;3.83;;;11.00;84.00;;;;;;5021652;28;20080;-82
2021/10/24 09:05:31;;;;;;;18.80;6.32;;;11.10;83.60;;;;;;5019574;28;20030;-83
2021/10/24 09:07:57;;;;;;;13.13;6.65;;;11.10;83.70;;;;;;5025329;28;20124;-82
2021/10/24 09:10:54;;;;;;;12.55;6.15;;;11.10;83.70;;;;;;5022459;28;20529;-82
2021/10/24 09:13:27;;;;;;;16.05;6.53;;;11.10;83.60;;;;;;5019977;28;20465;-82
2021/10/24 09:15:57;;;;;;;15.00;6.53;;;11.10;83.60;;;;;;5021790;28;20053;-80
2021/10/24 09:18:32;;;;;;;9.77;4.63;;;11.10;83.80;;;;;;5020803;28;20112;-81
2021/10/24 09:21:18;;;;;;;15.07;7.00;;;11.20;83.60;;;;;;5040644;28;20337;-69
2021/10/24 09:23:50;;;;;;;17.90;8.05;;;11.10;83.60;;;;;;5016527;28;20053;-75
2021/10/24 09:26:19;;;;;;;20.02;7.70;;;11.10;83.80;;;;;;5012049;28;20057;-87
2021/10/24 09:29:06;;;;;;;12.75;5.80;;;11.20;84.30;;;;;;5022494;28;20112;-90
2021/10/24 09:31:37;;;;;;;18.35;7.72;;;11.20;84.00;;;;;;5032957;28;20048;-85
2021/10/24 09:34:10;;;;;;;19.75;7.50;;;11.20;84.10;;;;;;5052406;28;20024;-86
2021/10/24 09:36:53;;;;;;;12.77;5.18;;;11.30;84.40;;;;;;5059546;28;20040;-86
2021/10/24 09:39:38;;;;;;;14.25;6.35;;;11.30;84.00;;;;;;5054678;28;20094;-86
2021/10/24 09:42:25;;;;;;;14.95;6.05;;;11.40;84.10;;;;;;5052619;28;20021;-78
2021/10/24 09:45:11;;;;;;;12.43;4.70;;;11.50;84.40;;;;;;5059093;28;20033;-87
2021/10/24 09:47:46;;;;;;;12.70;5.47;;;11.50;83.90;;;;;;5037025;28;20028;-80
2021/10/24 09:50:34;;;;;;;15.50;6.90;;;11.50;83.80;;;;;;5059166;28;20433;-80
2021/10/24 09:53:10;;;;;;;14.57;5.78;;;11.60;83.70;;;;;;5053741;28;20048;-86
2021/10/24 09:55:35;;;;;;;11.25;5.63;;;11.60;83.70;;;;;;5061292;28;20032;-78
2021/10/24 09:58:03;;;;;;;14.40;4.82;;;11.60;83.50;;;;;;5045517;28;20045;-80
2021/10/24 10:00:30;;;;;;;13.63;5.78;;;11.70;83.50;;;;;;5054098;28;20055;-80
2021/10/24 10:02:58;;;;;;;12.45;4.88;;;11.60;83.30;;;;;;5051873;28;20033;-79
2021/10/24 10:05:24;;;;;;;11.68;4.97;;;11.70;83.40;;;;;;5058773;28;20029;-82
2021/10/24 10:07:49;;;;;;;15.52;6.00;;;11.60;83.20;;;;;;5060483;28;20028;-85
2021/10/24 10:10:15;;;;;;;13.02;4.50;;;11.70;83.50;;;;;;5052564;28;20541;-79
2021/10/24 10:12:47;;;;;;;10.45;5.30;;;11.70;83.50;;;;;;5052047;28;20033;-82
2021/10/24 10:15:14;;;;;;;13.13;5.45;;;11.80;83.40;;;;;;5053446;28;20079;-81
2021/10/24 10:17:40;;;;;;;16.13;6.32;;;11.90;83.80;;;;;;5055516;28;20051;-84
2021/10/24 10:20:27;;;;;;;14.93;6.00;;;11.90;83.40;;;;;;5060422;28;20025;-79
2021/10/24 10:23:04;;;;;;;12.38;4.90;;;11.90;83.30;;;;;;5053580;28;20029;-81
2021/10/24 10:25:30;;;;;;;12.55;5.80;;;12.00;83.30;;;;;;5052510;28;20036;-82
2021/10/24 10:27:56;;;;;;;11.73;5.68;;;12.00;83.90;;;;;;5060714;28;20029;-84
2021/10/24 10:30:35;;;;;;;10.05;5.13;;;12.10;83.10;;;;;;5066860;28;20082;-78
2021/10/24 10:33:04;;;;;;;13.48;6.28;;;12.10;83.00;;;;;;5051844;28;20088;-80
2021/10/24 10:35:31;;;;;;;17.27;7.03;;;12.20;83.10;;;;;;5056580;28;20024;-80
2021/10/24 10:38:01;;;;;;;10.30;5.60;;;12.20;83.00;;;;;;5052611;28;20476;-72
2021/10/24 10:40:34;;;;;;;14.32;5.90;;;12.30;83.40;;;;;;5056183;28;20491;-74
2021/10/24 10:43:00;;;;;;;11.02;5.40;;;12.30;83.80;;;;;;5057382;28;20104;-77
2021/10/24 10:45:36;;;;;;;10.25;5.80;;;12.40;83.50;;;;;;5066525;28;20445;-84
2021/10/24 10:48:21;;;;;;;12.55;5.10;;;12.50;83.50;;;;;;5052366;28;20044;-81
2021/10/24 10:50:48;;;;;;;11.32;5.97;;;12.60;83.20;;;;;;5053514;28;20112;-82
2021/10/24 10:53:39;;;;;;;17.35;5.75;;;12.60;83.00;;;;;;5063114;28;20037;-81
2021/10/24 10:56:05;;;;;;;14.48;4.82;;;12.60;82.80;;;;;;5064848;28;20028;-80
2021/10/24 10:58:43;;;;;;;7.78;4.35;;;12.70;82.80;;;;;;5040041;28;20043;-80
2021/10/24 11:01:31;;;;;;;17.33;6.53;;;12.70;82.60;;;;;;5053544;28;20091;-81
2021/10/24 11:04:06;;;;;;;13.38;5.50;;;12.70;82.70;;;;;;5047365;28;20616;-81
2021/10/24 11:06:36;;;;;;;12.98;5.03;;;12.70;82.50;;;;;;5055108;28;20499;-81
2021/10/24 11:09:05;;;;;;;5.65;3.22;;;12.80;82.40;;;;;;5048244;28;20029;-81
2021/10/24 11:11:45;;;;;;;8.32;3.28;;;12.80;82.40;;;;;;5049097;28;20033;-82
2021/10/24 11:14:13;;;;;;;14.23;3.72;;;12.90;82.60;;;;;;5053108;28;20041;-80
2021/10/24 11:16:45;;;;;;;8.15;4.88;;;12.90;82.70;;;;;;5055979;28;20488;-81
2021/10/24 11:19:28;;;;;;;10.05;5.53;;;12.80;82.60;;;;;;5052774;28;20033;-81
2021/10/24 11:22:02;;;;;;;10.30;4.45;;;12.80;82.80;;;;;;5054830;28;20036;-81
2021/10/24 11:24:52;;;;;;;14.40;5.40;;;12.90;82.60;;;;;;5059889;28;20030;-80
2021/10/24 11:27:20;;;;;;;12.98;4.32;;;12.90;82.40;;;;;;5062319;28;20075;-79
2021/10/24 11:29:50;;;;;;;11.45;4.50;;;13.00;82.20;;;;;;5063946;28;20096;-80
2021/10/24 11:32:26;;;;;;;8.48;5.03;;;13.10;81.90;;;;;;5060256;28;20079;-79
2021/10/24 11:34:56;;;;;;;9.18;3.80;;;13.10;81.80;;;;;;5041392;28;20061;-78
2021/10/24 11:38:00;;;;;;;6.55;3.08;;;13.20;81.90;;;;;;5047033;28;20037;-81
2021/10/24 11:40:28;;;;;;;12.05;3.78;;;13.20;82.00;;;;;;5013900;28;20063;-80
2021/10/24 11:43:00;;;;;;;7.20;3.63;;;13.30;81.80;;;;;;5057919;28;20029;-81
2021/10/24 11:45:27;;;;;;;9.80;4.07;;;13.40;81.20;;;;;;5062487;28;20043;-81
2021/10/24 11:48:10;;;;;;;16.50;4.55;;;13.40;81.00;;;;;;5062760;28;20061;-81
2021/10/24 11:50:39;;;;;;;6.68;3.17;;;13.50;80.60;;;;;;5059033;28;20123;-80
2021/10/24 11:53:06;;;;;;;8.50;4.22;;;13.50;80.60;;;;;;5051872;28;20048;-82
2021/10/24 11:55:33;;;;;;;9.93;3.88;;;13.50;81.00;;;;;;5057951;28;20029;-76
2021/10/24 12:00:49;;;;;;;11.25;4.20;;;13.60;80.60;;;;;;5064212;28;20024;-78
2021/10/24 12:03:28;;;;;;;7.43;4.07;;;13.60;80.50;;;;;;5048925;28;20400;-78
2021/10/24 12:05:55;;;;;;;10.18;3.90;;;13.70;80.60;;;;;;5061556;28;20403;-79
2021/10/24 12:08:45;;;;;;;10.85;3.22;;;13.70;80.00;;;;;;5057896;28;20028;-79
2021/10/24 12:11:42;;;;;;;11.65;3.90;;;13.80;80.40;;;;;;5047614;28;20730;-79
2021/10/24 12:14:10;;;;;;;8.40;4.07;;;13.80;81.00;;;;;;5063002;28;20099;-79
2021/10/24 12:16:45;;;;;;;6.43;3.80;;;13.90;81.10;;;;;;5063412;28;20031;-77
2021/10/24 12:19:19;;;;;;;7.55;3.90;;;13.90;81.30;;;;;;5065811;28;20090;-81
2021/10/24 12:22:18;;;;;;;10.15;4.18;;;13.90;80.80;;;;;;5066809;28;20380;-80
2021/10/24 12:24:50;;;;;;;10.68;4.00;;;14.00;80.30;;;;;;5062833;28;20017;-80
2021/10/24 12:27:23;;;;;;;9.30;4.40;;;14.00;79.10;;;;;;5064077;28;20029;-78
2021/10/24 12:30:11;;;;;;;8.43;3.57;;;14.00;78.80;;;;;;5051312;28;20044;-80
2021/10/24 12:32:56;;;;;;;8.43;3.92;;;14.00;78.90;;;;;;5059393;28;20056;-80
2021/10/24 12:35:22;;;;;;;8.82;3.65;;;14.10;79.30;;;;;;5058985;28;20032;-80
2021/10/24 12:38:02;;;;;;;7.60;3.38;;;14.10;80.30;;;;;;5058558;28;20036;-80
2021/10/24 12:40:32;;;;;;;9.05;3.22;;;14.10;79.60;;;;;;5056065;28;20613;-80
2021/10/24 12:43:04;;;;;;;11.52;3.67;;;14.20;78.80;;;;;;5061988;28;20029;-79
2021/10/24 12:45:30;;;;;;;11.65;4.00;;;14.20;78.30;;;;;;5061300;28;20016;-80
2021/10/24 12:47:58;;;;;;;6.25;2.55;;;14.20;79.50;;;;;;5063005;28;20056;-79
2021/10/24 12:50:35;;;;;;;7.82;3.70;;;14.30;80.00;;;;;;5054126;28;20396;-81
2021/10/24 12:53:11;;;;;;;7.80;3.10;;;14.30;80.50;;;;;;5052976;28;20036;-80
2021/10/24 12:55:38;;;;;;;4.88;2.92;;;14.40;82.30;;;;;;5063742;28;20491;-80
2021/10/24 12:58:04;;;;;;;10.00;3.80;;;14.40;81.50;;;;;;5061607;28;20041;-80
2021/10/24 13:00:32;;;;;;;8.07;3.22;;;14.50;79.80;;;;;;5058479;28;20028;-81